Time;durP1;ratioP1;P1;durP2;ratioP2;P2;SDS_P1;SDS_P2;PMS_P1;PMS_P2;Temp;Humidity;BMP_temperature;BMP_pressure;BME280_temperature;BME280_humidity;BME280_pressure;Samples;Min_cycle;Max_cycle;Signal;HPM_P1;HPM_P2
2024/01/30 00:03:38;;;;;;;1999.90;999.90;;;;;;;7.07;100.00;102544.00;10337748;28;20133;-68
2024/01/30 00:08:40;;;;;;;1999.90;999.90;;;;;;;7.49;100.00;102551.16;10337423;28;20046;-68
2024/01/30 00:13:42;;;;;;;1999.90;999.90;;;;;;;7.44;100.00;102546.03;10337319;28;20057;-68
2024/01/30 00:18:45;;;;;;;1999.90;999.90;;;;;;;7.31;100.00;102552.31;10319241;28;20125;-68
2024/01/30 00:23:48;;;;;;;1999.90;999.90;;;;;;;7.48;100.00;102543.38;10336631;28;20117;-68
2024/01/30 00:28:50;;;;;;;1999.90;999.90;;;;;;;7.66;100.00;102553.50;10319375;28;20081;-68
2024/01/30 00:33:53;;;;;;;1999.90;999.90;;;;;;;7.13;100.00;102547.38;10336520;28;20074;-68
2024/01/30 00:38:55;;;;;;;1999.90;999.90;;;;;;;7.59;100.00;102541.47;10335681;28;20060;-68
2024/01/30 00:43:58;;;;;;;1999.90;999.90;;;;;;;7.22;100.00;102539.44;10336180;28;20073;-68
2024/01/30 00:49:00;;;;;;;1999.90;999.90;;;;;;;7.30;100.00;102526.31;10335866;28;20141;-68
2024/01/30 00:54:02;;;;;;;1999.90;999.90;;;;;;;7.47;100.00;102529.50;10335139;28;20530;-68
2024/01/30 00:59:05;;;;;;;1999.90;999.90;;;;;;;7.21;100.00;102528.16;10334761;28;20050;-68
2024/01/30 01:04:07;;;;;;;1999.90;999.90;;;;;;;7.45;100.00;102531.28;10318256;28;20050;-68
2024/01/30 01:09:11;;;;;;;1999.90;999.90;;;;;;;7.55;100.00;102529.38;10334521;28;20129;-68
2024/01/30 01:14:13;;;;;;;1999.90;999.90;;;;;;;7.68;100.00;102522.19;10335083;28;20057;-68
2024/01/30 01:19:16;;;;;;;1999.90;999.90;;;;;;;7.47;100.00;102532.09;10317056;28;20416;-68
2024/01/30 01:24:18;;;;;;;1999.90;999.90;;;;;;;7.46;100.00;102524.31;10333880;28;20054;-68
2024/01/30 01:29:28;;;;;;;1999.90;999.90;;;;;;;7.72;100.00;102516.03;10334573;28;20046;-68
2024/01/30 01:34:30;;;;;;;1999.90;999.90;;;;;;;7.48;100.00;102515.59;10316681;28;20101;-68
2024/01/30 01:39:33;;;;;;;1999.90;999.90;;;;;;;7.46;100.00;102501.69;10334488;28;20050;-68
2024/01/30 01:44:35;;;;;;;1999.90;999.90;;;;;;;7.59;100.00;102500.59;10333805;28;20436;-68
2024/01/30 01:49:38;;;;;;;1999.90;999.90;;;;;;;7.72;100.00;102505.63;10317091;28;20085;-68
2024/01/30 01:54:41;;;;;;;1999.90;999.90;;;;;;;7.79;100.00;102504.59;10316487;28;20494;-68
2024/01/30 01:59:43;;;;;;;1999.90;999.90;;;;;;;7.89;100.00;102500.09;10316998;28;20050;-68
2024/01/30 02:04:46;;;;;;;1999.90;999.90;;;;;;;7.78;100.00;102503.75;10333982;28;20062;-68
2024/01/30 02:09:48;;;;;;;1999.90;999.90;;;;;;;7.63;100.00;102502.28;10336051;28;20453;-68
2024/01/30 02:14:51;;;;;;;1999.90;999.90;;;;;;;7.53;100.00;102490.31;10325130;28;20058;-68
2024/01/30 02:19:53;;;;;;;1999.90;999.90;;;;;;;7.93;100.00;102488.69;10341060;28;20405;-68
2024/01/30 02:24:56;;;;;;;1999.90;999.90;;;;;;;7.84;100.00;102487.13;10340587;28;20066;-68
2024/01/30 02:29:58;;;;;;;1999.90;999.90;;;;;;;7.60;100.00;102491.06;10341239;28;20047;-68
2024/01/30 02:35:01;;;;;;;1999.90;999.90;;;;;;;7.74;100.00;102483.81;10341108;28;20057;-68
2024/01/30 02:40:04;;;;;;;1999.90;999.90;;;;;;;7.97;100.00;102488.59;10376132;23;20077;-69
2024/01/30 02:45:07;;;;;;;1999.90;999.90;;;;;;;7.67;100.00;102481.38;10379808;28;20088;-69
2024/01/30 02:50:09;;;;;;;1999.90;999.90;;;;;;;7.55;100.00;102465.06;10381124;28;20058;-70
2024/01/30 02:55:12;;;;;;;1999.90;999.90;;;;;;;7.68;100.00;102464.81;10379860;28;20060;-69
2024/01/30 03:00:15;;;;;;;1999.90;999.90;;;;;;;7.77;100.00;102449.03;10378996;28;20409;-69
2024/01/30 03:05:17;;;;;;;1999.90;999.90;;;;;;;7.59;100.00;102464.09;10380157;28;20404;-70
2024/01/30 03:10:20;;;;;;;1999.90;999.90;;;;;;;7.72;100.00;102459.53;10379179;28;20041;-70
2024/01/30 03:15:22;;;;;;;1999.90;999.90;;;;;;;7.60;100.00;102451.94;10379066;28;20061;-70
2024/01/30 03:20:25;;;;;;;1999.90;999.90;;;;;;;7.58;100.00;102454.59;10379058;28;20041;-69
2024/01/30 03:25:27;;;;;;;1999.90;999.90;;;;;;;7.70;100.00;102452.63;10378713;28;20056;-69
2024/01/30 03:30:30;;;;;;;1999.90;999.90;;;;;;;7.77;100.00;102449.03;10379509;28;20050;-69
2024/01/30 03:35:32;;;;;;;1999.90;999.90;;;;;;;7.81;100.00;102435.03;10377638;28;20080;-69
2024/01/30 03:40:34;;;;;;;1999.90;999.90;;;;;;;7.84;100.00;102439.34;10378626;28;20129;-69
2024/01/30 03:45:37;;;;;;;1999.90;999.90;;;;;;;7.83;100.00;102433.25;10377889;28;20058;-70
2024/01/30 03:50:39;;;;;;;1999.90;999.90;;;;;;;7.78;100.00;102430.75;10378771;28;20048;-70
2024/01/30 03:55:41;;;;;;;1999.90;999.90;;;;;;;7.65;100.00;102415.34;10378663;28;20050;-70
2024/01/30 04:00:44;;;;;;;1999.90;999.90;;;;;;;7.63;100.00;102412.75;10376635;28;20543;-70
2024/01/30 04:05:47;;;;;;;1999.90;999.90;;;;;;;7.52;100.00;102412.13;10378195;28;20064;-70
2024/01/30 04:10:49;;;;;;;1999.90;999.90;;;;;;;7.70;100.00;102422.22;10377334;28;20488;-70
2024/01/30 04:15:52;;;;;;;1999.90;999.90;;;;;;;7.63;100.00;102424.06;10377239;28;20132;-70
2024/01/30 04:20:54;;;;;;;1999.90;999.90;;;;;;;7.88;100.00;102433.16;10375804;28;20477;-70
2024/01/30 04:25:56;;;;;;;1999.90;999.90;;;;;;;7.78;100.00;102438.56;10377489;28;20045;-70
2024/01/30 04:30:59;;;;;;;1999.90;999.90;;;;;;;7.85;100.00;102434.09;10377163;28;20128;-69
2024/01/30 04:36:01;;;;;;;1999.90;999.90;;;;;;;7.92;100.00;102440.03;10376464;28;20050;-70
2024/01/30 04:41:04;;;;;;;1999.90;999.90;;;;;;;7.74;100.00;102420.41;10376119;28;20133;-69
2024/01/30 04:46:06;;;;;;;1999.90;999.90;;;;;;;7.90;100.00;102420.94;10376800;28;20060;-69
2024/01/30 04:51:08;;;;;;;1999.90;999.90;;;;;;;7.89;100.00;102417.47;10376601;28;20100;-70
2024/01/30 04:56:11;;;;;;;1999.90;999.90;;;;;;;8.10;100.00;102418.81;10375276;28;20050;-69
2024/01/30 05:01:17;;;;;;;1999.90;999.90;;;;;;;7.90;100.00;102411.38;10375044;28;20042;-69
2024/01/30 05:06:26;;;;;;;1999.90;999.90;;;;;;;8.02;100.00;102401.56;10374932;28;20050;-70
2024/01/30 05:11:29;;;;;;;1999.90;999.90;;;;;;;8.09;100.00;102403.19;10374644;28;20042;-69
2024/01/30 05:16:31;;;;;;;1999.90;999.90;;;;;;;7.96;100.00;102386.91;10375748;28;20050;-69
2024/01/30 05:21:34;;;;;;;1999.90;999.90;;;;;;;7.96;100.00;102400.81;10358403;28;20056;-69
2024/01/30 05:26:37;;;;;;;1999.90;999.90;;;;;;;7.90;100.00;102400.06;10374306;28;20137;-70
2024/01/30 05:31:39;;;;;;;1999.90;999.90;;;;;;;7.86;100.00;102401.03;10375174;28;20077;-69
2024/01/30 05:36:42;;;;;;;1999.90;999.90;;;;;;;7.75;100.00;102398.63;10375258;28;20058;-69
2024/01/30 05:41:44;;;;;;;1999.90;999.90;;;;;;;7.94;100.00;102406.97;10374343;28;20438;-69
2024/01/30 05:46:47;;;;;;;1999.90;999.90;;;;;;;7.84;100.00;102405.44;10374417;28;20064;-70
2024/01/30 05:51:49;;;;;;;1999.90;999.90;;;;;;;7.94;100.00;102410.41;10374163;28;20132;-70
2024/01/30 05:56:51;;;;;;;1999.90;999.90;;;;;;;8.14;100.00;102411.75;10372990;28;20511;-70
2024/01/30 06:01:54;;;;;;;1999.90;999.90;;;;;;;8.23;100.00;102400.25;10374642;28;20052;-69
2024/01/30 06:06:56;;;;;;;1999.90;999.90;;;;;;;8.30;100.00;102402.69;10372756;28;20049;-70
2024/01/30 06:11:59;;;;;;;1999.90;999.90;;;;;;;7.94;100.00;102404.34;10374404;28;20045;-70
2024/01/30 06:17:01;;;;;;;1999.90;999.90;;;;;;;8.29;100.00;102411.44;10373746;28;20477;-69
2024/01/30 06:22:06;;;;;;;1999.90;999.90;;;;;;;8.36;100.00;102394.72;10373607;28;20112;-70
2024/01/30 06:27:09;;;;;;;1999.90;999.90;;;;;;;8.59;100.00;102397.72;10372478;28;20128;-69
2024/01/30 06:32:11;;;;;;;1999.90;999.90;;;;;;;8.59;100.00;102398.63;10373442;28;20042;-70
2024/01/30 06:37:14;;;;;;;1999.90;999.90;;;;;;;8.38;100.00;102402.53;10373552;28;20397;-70
2024/01/30 06:42:16;;;;;;;1999.90;999.90;;;;;;;8.81;100.00;102398.94;10373140;28;20050;-70
2024/01/30 06:47:18;;;;;;;1999.90;999.90;;;;;;;8.74;100.00;102398.25;10372031;28;20485;-70
2024/01/30 06:52:21;;;;;;;1999.90;999.90;;;;;;;8.86;100.00;102402.31;10373776;28;20057;-70
2024/01/30 06:57:23;;;;;;;1999.90;999.90;;;;;;;8.90;100.00;102390.88;10376510;28;20411;-70
2024/01/30 07:02:26;;;;;;;1999.90;999.90;;;;;;;9.17;100.00;102405.91;10380765;28;20054;-70
2024/01/30 07:07:28;;;;;;;1999.90;999.90;;;;;;;9.15;100.00;102405.09;10379444;28;20116;-70
2024/01/30 07:12:31;;;;;;;1999.90;999.90;;;;;;;9.26;100.00;102426.56;10380379;28;20054;-70
2024/01/30 07:17:34;;;;;;;1999.90;999.90;;;;;;;9.07;100.00;102428.78;10380240;28;20104;-70
2024/01/30 07:22:37;;;;;;;1999.90;999.90;;;;;;;9.28;100.00;102419.56;10378803;28;20045;-70
2024/01/30 07:27:39;;;;;;;1999.90;999.90;;;;;;;9.16;100.00;102425.09;10379091;28;20481;-70
2024/01/30 07:32:41;;;;;;;1999.90;999.90;;;;;;;9.06;100.00;102446.22;10379580;28;20050;-70
2024/01/30 07:37:44;;;;;;;1999.90;999.90;;;;;;;8.87;100.00;102460.63;10377442;28;20049;-69
2024/01/30 07:42:48;;;;;;;1999.90;999.90;;;;;;;9.23;100.00;102445.81;10378618;28;20565;-70
2024/01/30 07:47:51;;;;;;;1999.90;999.90;;;;;;;9.16;100.00;102461.66;10377814;28;20042;-70
2024/01/30 07:52:55;;;;;;;1999.90;999.90;;;;;;;9.16;100.00;102451.22;10378138;28;20080;-70
2024/01/30 07:57:58;;;;;;;1999.90;999.90;;;;;;;9.20;100.00;102455.47;10376864;28;20129;-70
2024/01/30 08:03:01;;;;;;;1999.90;999.90;;;;;;;9.27;100.00;102457.03;10361350;28;20081;-70
2024/01/30 08:08:04;;;;;;;1999.90;999.90;;;;;;;9.45;100.00;102466.16;10377143;28;20049;-70
2024/01/30 08:13:08;;;;;;;1999.90;999.90;;;;;;;9.48;100.00;102458.22;10378074;28;20081;-70
2024/01/30 08:18:10;;;;;;;1999.90;999.90;;;;;;;9.67;100.00;102471.69;10376138;28;20441;-70
2024/01/30 08:23:12;;;;;;;1999.90;999.90;;;;;;;9.68;100.00;102481.22;10375901;28;20543;-70
2024/01/30 08:28:15;;;;;;;1999.90;999.90;;;;;;;9.64;100.00;102496.16;10377454;28;20052;-70
2024/01/30 08:33:20;;;;;;;1999.90;999.90;;;;;;;9.85;100.00;102489.50;10376672;28;20507;-70
2024/01/30 08:38:23;;;;;;;1999.90;999.90;;;;;;;9.88;100.00;102482.47;10376892;28;20137;-69
2024/01/30 08:43:25;;;;;;;1999.90;999.90;;;;;;;9.89;100.00;102473.72;10377065;28;20060;-70
2024/01/30 08:48:27;;;;;;;1999.90;999.90;;;;;;;10.13;100.00;102485.25;10376040;28;20383;-70
2024/01/30 08:53:30;;;;;;;1999.90;999.90;;;;;;;10.19;100.00;102479.84;10376575;28;20100;-70
2024/01/30 08:58:32;;;;;;;1999.90;999.90;;;;;;;10.27;100.00;102484.84;10376395;28;20060;-69
2024/01/30 09:03:36;;;;;;;1999.90;999.90;;;;;;;10.19;100.00;102488.53;10374806;28;20054;-69
2024/01/30 09:08:39;;;;;;;1999.90;999.90;;;;;;;10.26;100.00;102472.69;10375979;28;20042;-69
2024/01/30 09:13:42;;;;;;;1999.90;999.90;;;;;;;10.41;100.00;102480.94;10357863;28;20058;-70
2024/01/30 09:18:45;;;;;;;1999.90;999.90;;;;;;;10.20;100.00;102484.16;10375030;28;20153;-69
2024/01/30 09:23:47;;;;;;;1999.90;999.90;;;;;;;10.38;100.00;102490.66;10358380;28;20153;-69
2024/01/30 09:28:49;;;;;;;1999.90;999.90;;;;;;;10.50;100.00;102487.66;10375398;28;20050;-69
2024/01/30 09:33:53;;;;;;;1999.90;999.90;;;;;;;10.15;100.00;102496.53;10375309;28;20046;-69
2024/01/30 09:38:56;;;;;;;1999.90;999.90;;;;;;;10.41;100.00;102499.28;10374706;28;20049;-70
2024/01/30 09:44:00;;;;;;;1999.90;999.90;;;;;;;10.31;100.00;102507.44;10374404;28;20391;-69
2024/01/30 09:49:03;;;;;;;1999.90;999.90;;;;;;;10.58;100.00;102514.50;10357488;28;20065;-69
2024/01/30 09:54:06;;;;;;;1999.90;999.90;;;;;;;10.26;100.00;102510.16;10373718;28;20085;-69
2024/01/30 09:59:09;;;;;;;1999.90;999.90;;;;;;;10.56;100.00;102503.22;10374785;28;20056;-69
2024/01/30 10:04:11;;;;;;;1999.90;999.90;;;;;;;10.54;100.00;102510.25;10373557;28;20054;-69
2024/01/30 10:09:14;;;;;;;1999.90;999.90;;;;;;;10.78;100.00;102513.88;10374557;28;20085;-69
2024/01/30 10:14:16;;;;;;;1999.90;999.90;;;;;;;10.81;100.00;102514.69;10374535;28;20053;-70
2024/01/30 10:19:18;;;;;;;1999.90;999.90;;;;;;;10.92;100.00;102518.69;10373728;28;20121;-69
2024/01/30 10:24:24;;;;;;;1999.90;999.90;;;;;;;10.83;100.00;102526.84;10373723;28;20080;-69
2024/01/30 10:29:28;;;;;;;1999.90;999.90;;;;;;;11.01;100.00;102525.44;10372557;28;20505;-70
2024/01/30 10:34:30;;;;;;;1999.90;999.90;;;;;;;10.86;100.00;102529.38;10381876;28;20052;-70
2024/01/30 10:39:38;;;;;;;1999.90;999.90;;;;;;;11.20;100.00;102527.47;10380134;28;20062;-69
2024/01/30 10:45:12;;;;;;;1999.90;999.90;;;;;;;11.19;100.00;102520.50;10380392;28;20056;-69
2024/01/30 10:50:15;;;;;;;1999.90;999.90;;;;;;;11.21;100.00;102518.66;10380140;28;20077;-70
2024/01/30 10:55:19;;;;;;;1999.90;999.90;;;;;;;11.22;100.00;102523.00;10380573;28;20050;-70
2024/01/30 11:00:24;;;;;;;1999.90;999.90;;;;;;;11.19;100.00;102513.47;10379946;28;20073;-69
2024/01/30 11:05:27;;;;;;;1999.90;999.90;;;;;;;11.07;100.00;102527.84;10378947;28;20054;-69
2024/01/30 11:10:47;;;;;;;1999.90;999.90;;;;;;;11.11;100.00;102524.22;10379878;28;20046;-69
2024/01/30 11:15:50;;;;;;;1999.90;999.90;;;;;;;11.66;99.50;102518.03;10379225;28;20065;-69
2024/01/30 11:20:53;;;;;;;1999.90;999.90;;;;;;;11.44;99.36;102521.38;10380185;28;20081;-69
2024/01/30 11:25:57;;;;;;;1999.90;999.90;;;;;;;11.60;99.23;102524.38;10361710;28;20100;-69
2024/01/30 11:31:07;;;;;;;1999.90;999.90;;;;;;;11.73;98.13;102521.31;10378446;28;20049;-70
2024/01/30 11:36:11;;;;;;;1999.90;999.90;;;;;;;11.96;98.72;102508.25;10378383;28;20057;-70
2024/01/30 11:41:15;;;;;;;1999.90;999.90;;;;;;;11.76;96.16;102508.94;10376794;28;20111;-69
2024/01/30 11:46:17;;;;;;;1999.90;999.90;;;;;;;11.64;92.52;102512.00;10360959;28;20453;-69
2024/01/30 11:51:20;;;;;;;1999.90;999.90;;;;;;;12.00;87.20;102503.75;10378831;28;20053;-69
2024/01/30 11:56:23;;;;;;;1999.90;999.90;;;;;;;12.47;83.76;102511.63;10378191;28;20478;-70
2024/01/30 12:01:26;;;;;;;1999.90;999.90;;;;;;;12.29;82.68;102510.56;10378663;28;20041;-71
2024/01/30 12:06:33;;;;;;;1999.90;999.90;;;;;;;12.01;82.83;102515.97;10378439;28;20050;-69
2024/01/30 12:11:52;;;;;;;1999.90;999.90;;;;;;;12.10;83.28;102510.38;10376274;28;20057;-69
2024/01/30 12:16:54;;;;;;;1999.90;999.90;;;;;;;12.19;84.12;102519.72;10376853;28;20129;-69
2024/01/30 12:21:58;;;;;;;1999.90;999.90;;;;;;;11.79;85.63;102513.22;10377710;28;20050;-69
2024/01/30 12:27:01;;;;;;;1999.90;999.90;;;;;;;12.12;83.35;102513.81;10376943;28;20394;-69
2024/01/30 12:32:04;;;;;;;1999.90;999.90;;;;;;;11.95;84.20;102510.94;10377312;28;20045;-70
2024/01/30 12:37:08;;;;;;;1999.90;999.90;;;;;;;11.76;84.13;102522.06;10377152;28;20052;-69
2024/01/30 12:42:11;;;;;;;1999.90;999.90;;;;;;;11.98;83.74;102529.22;10375109;28;20064;-70
2024/01/30 12:47:16;;;;;;;1999.90;999.90;;;;;;;11.79;84.38;102539.47;10391367;28;20492;-69
2024/01/30 12:52:18;;;;;;;1999.90;999.90;;;;;;;11.50;85.20;102542.19;10375963;28;20056;-69
2024/01/30 12:57:20;;;;;;;1999.90;999.90;;;;;;;11.37;84.18;102535.63;10375306;28;20054;-70
2024/01/30 13:02:23;;;;;;;1999.90;999.90;;;;;;;11.58;82.69;102546.28;10375648;28;20559;-69
2024/01/30 13:07:25;;;;;;;1999.90;999.90;;;;;;;11.45;82.60;102546.72;10375483;28;20053;-69
2024/01/30 13:12:28;;;;;;;1999.90;999.90;;;;;;;11.31;82.14;102562.03;10375892;28;20125;-69
2024/01/30 13:17:31;;;;;;;1999.90;999.90;;;;;;;11.55;80.84;102565.63;10374600;28;20046;-69
2024/01/30 13:22:33;;;;;;;1999.90;999.90;;;;;;;11.10;83.15;102574.06;10373794;28;20427;-69
2024/01/30 13:27:37;;;;;;;1999.90;999.90;;;;;;;11.05;85.62;102579.44;10374869;28;20050;-69
2024/01/30 13:32:44;;;;;;;1999.90;999.90;;;;;;;10.93;85.37;102588.56;10375279;28;20046;-68
2024/01/30 13:37:48;;;;;;;1999.90;999.90;;;;;;;10.93;85.75;102579.84;10375019;28;20053;-69
2024/01/30 13:42:50;;;;;;;1999.90;999.90;;;;;;;10.65;83.70;102590.28;10375069;28;20126;-69
2024/01/30 13:47:53;;;;;;;1999.90;999.90;;;;;;;10.80;83.57;102592.44;10374995;28;20060;-69
2024/01/30 13:52:56;;;;;;;1999.90;999.90;;;;;;;10.83;81.70;102588.88;10373065;28;20452;-68
2024/01/30 13:58:01;;;;;;;1999.90;999.90;;;;;;;10.83;78.87;102597.59;10374938;28;20057;-69
2024/01/30 14:03:04;;;;;;;1999.90;999.90;;;;;;;10.66;76.15;102608.56;10372924;28;20568;-69
2024/01/30 14:08:08;;;;;;;1999.90;999.90;;;;;;;10.51;78.67;102611.63;10379576;28;20092;-69
2024/01/30 14:13:11;;;;;;;1999.90;999.90;;;;;;;10.31;79.73;102627.84;10381511;28;20046;-69
2024/01/30 14:18:14;;;;;;;1999.90;999.90;;;;;;;10.22;79.56;102636.78;10381946;28;20054;-69
2024/01/30 14:23:17;;;;;;;1999.90;999.90;;;;;;;9.94;80.46;102649.75;10382300;28;20121;-69
2024/01/30 14:28:20;;;;;;;1999.90;999.90;;;;;;;9.97;83.08;102654.88;10364730;28;20053;-69
2024/01/30 14:33:22;;;;;;;1999.90;999.90;;;;;;;9.96;84.29;102664.50;10380736;28;20046;-68
2024/01/30 14:38:25;;;;;;;1999.90;999.90;;;;;;;9.72;89.24;102676.44;10381257;28;20420;-69
2024/01/30 14:43:27;;;;;;;1999.90;999.90;;;;;;;9.81;91.51;102680.59;10396837;28;20085;-69
2024/01/30 14:48:30;;;;;;;1999.90;999.90;;;;;;;9.34;96.34;102685.16;10381311;28;20045;-69
2024/01/30 14:53:32;;;;;;;1999.90;999.90;;;;;;;9.32;96.45;102690.41;10385859;22;20047;-68
2024/01/30 14:58:35;;;;;;;1999.90;999.90;;;;;;;9.38;98.74;102687.69;10340523;28;20129;-68
2024/01/30 15:03:39;;;;;;;1999.90;999.90;;;;;;;9.28;98.47;102696.63;10340327;28;20077;-68
2024/01/30 15:08:41;;;;;;;1999.90;999.90;;;;;;;9.40;99.61;102692.88;10339384;28;20406;-68
2024/01/30 15:13:44;;;;;;;1999.90;999.90;;;;;;;9.19;98.77;102702.03;10339870;28;20062;-68
2024/01/30 15:18:46;;;;;;;1999.90;999.90;;;;;;;9.17;100.00;102696.81;10338508;28;20133;-68
2024/01/30 15:23:49;;;;;;;1999.90;999.90;;;;;;;9.10;100.00;102711.78;10339528;28;20108;-68
2024/01/30 15:28:51;;;;;;;1999.90;999.90;;;;;;;9.16;100.00;102721.22;10322000;28;20128;-67
2024/01/30 15:33:54;;;;;;;1999.90;999.90;;;;;;;9.02;100.00;102718.06;10338481;28;20129;-68
2024/01/30 15:38:56;;;;;;;1999.90;999.90;;;;;;;9.42;99.87;102725.06;10338941;28;20481;-68
2024/01/30 15:44:01;;;;;;;1999.90;999.90;;;;;;;9.00;100.00;102736.38;10320908;28;20378;-68
2024/01/30 15:49:04;;;;;;;1999.90;999.90;;;;;;;9.09;100.00;102743.16;10305663;28;20105;-68
2024/01/30 15:54:07;;;;;;;1999.90;999.90;;;;;;;8.91;100.00;102758.31;10337860;28;20062;-68
2024/01/30 15:59:10;;;;;;;1999.90;999.90;;;;;;;8.97;100.00;102759.09;10320328;28;20042;-68
2024/01/30 16:04:12;;;;;;;1999.90;999.90;;;;;;;8.84;100.00;102781.97;10338012;28;20062;-68
2024/01/30 16:09:15;;;;;;;1999.90;999.90;;;;;;;8.99;100.00;102778.19;10337901;28;20056;-68
2024/01/30 16:14:17;;;;;;;1999.90;999.90;;;;;;;8.86;100.00;102777.56;10337635;28;20104;-68
2024/01/30 16:19:20;;;;;;;1999.90;999.90;;;;;;;8.54;100.00;102805.13;10337379;28;20125;-68
2024/01/30 16:24:22;;;;;;;1999.90;999.90;;;;;;;8.28;100.00;102821.16;10336528;28;20387;-69
2024/01/30 16:29:25;;;;;;;1999.90;999.90;;;;;;;8.33;100.00;102821.97;10335964;28;20076;-68
2024/01/30 16:34:27;;;;;;;1999.90;999.90;;;;;;;8.38;100.00;102825.34;10336741;28;20057;-68
2024/01/30 16:39:30;;;;;;;1999.90;999.90;;;;;;;7.95;100.00;102836.41;10319532;28;20080;-68
2024/01/30 16:44:33;;;;;;;1999.90;999.90;;;;;;;8.06;100.00;102844.97;10336354;28;20137;-68
2024/01/30 16:49:35;;;;;;;1999.90;999.90;;;;;;;7.87;100.00;102851.31;10336135;28;20050;-68
2024/01/30 16:54:37;;;;;;;1999.90;999.90;;;;;;;7.95;100.00;102859.91;10335283;28;20096;-69
2024/01/30 16:59:40;;;;;;;1999.90;999.90;;;;;;;8.07;100.00;102864.09;10335193;28;20478;-69
2024/01/30 17:04:42;;;;;;;1999.90;999.90;;;;;;;8.03;100.00;102870.25;10335591;28;20057;-69
2024/01/30 17:09:45;;;;;;;1999.90;999.90;;;;;;;8.05;100.00;102886.72;10317683;28;20557;-69
2024/01/30 17:14:49;;;;;;;1999.90;999.90;;;;;;;7.92;100.00;102892.13;10334694;28;20050;-69
2024/01/30 17:19:52;;;;;;;1999.90;999.90;;;;;;;7.73;100.00;102898.44;10334556;28;20533;-69
2024/01/30 17:24:55;;;;;;;1999.90;999.90;;;;;;;8.02;100.00;102910.25;10317202;28;20047;-69
2024/01/30 17:29:57;;;;;;;1999.90;999.90;;;;;;;7.73;100.00;102928.00;10317588;28;20056;-69
2024/01/30 17:35:00;;;;;;;1999.90;999.90;;;;;;;7.92;100.00;102928.63;10334873;28;20061;-69
2024/01/30 17:40:03;;;;;;;1999.90;999.90;;;;;;;7.93;100.00;102922.50;10333962;28;20061;-69
2024/01/30 17:45:06;;;;;;;1999.90;999.90;;;;;;;7.86;100.00;102933.06;10317151;28;20481;-69
2024/01/30 17:50:09;;;;;;;1999.90;999.90;;;;;;;7.80;100.00;102927.03;10301319;28;20050;-68
2024/01/30 17:55:11;;;;;;;1999.90;999.90;;;;;;;7.66;100.00;102941.09;10333853;28;20137;-68
2024/01/30 18:00:14;;;;;;;1999.90;999.90;;;;;;;7.65;100.00;102948.06;10334108;28;20051;-68
2024/01/30 18:05:21;;;;;;;1999.90;999.90;;;;;;;7.81;100.00;102967.00;10302007;28;20081;-68
2024/01/30 18:10:23;;;;;;;1999.90;999.90;;;;;;;7.84;100.00;102968.72;10316721;28;20133;-68
2024/01/30 18:15:26;;;;;;;1999.90;999.90;;;;;;;7.80;100.00;102971.38;10333363;28;20506;-68
2024/01/30 18:20:28;;;;;;;1999.90;999.90;;;;;;;7.92;100.00;102985.16;10333256;28;20069;-69
2024/01/30 18:25:31;;;;;;;1999.90;999.90;;;;;;;7.93;100.00;102986.88;10333869;28;20050;-69
2024/01/30 18:30:33;;;;;;;1999.90;999.90;;;;;;;7.66;100.00;103001.06;10333038;28;20057;-69
2024/01/30 18:35:35;;;;;;;1999.90;999.90;;;;;;;7.77;100.00;102992.25;10333673;28;20138;-69
2024/01/30 18:40:38;;;;;;;1999.90;999.90;;;;;;;7.86;100.00;103000.88;10333926;28;20050;-69
2024/01/30 18:45:40;;;;;;;1999.90;999.90;;;;;;;7.88;100.00;103015.59;10332870;28;20413;-68
2024/01/30 18:50:43;;;;;;;1999.90;999.90;;;;;;;7.85;100.00;103028.69;10333676;28;20053;-69
2024/01/30 18:55:45;;;;;;;1999.90;999.90;;;;;;;7.83;100.00;103025.22;10340092;28;20141;-69
2024/01/30 19:00:48;;;;;;;1999.90;999.90;;;;;;;7.88;100.00;103033.00;10322596;28;20046;-68
2024/01/30 19:05:51;;;;;;;1999.90;999.90;;;;;;;7.77;100.00;103033.97;10323106;28;20056;-68
2024/01/30 19:10:55;;;;;;;1999.90;999.90;;;;;;;7.74;100.00;103033.16;10339447;28;20046;-68
2024/01/30 19:15:57;;;;;;;1999.90;999.90;;;;;;;7.76;100.00;103045.28;10322135;28;20414;-68
2024/01/30 19:21:00;;;;;;;1999.90;999.90;;;;;;;7.51;100.00;103046.38;10322590;28;20047;-68
2024/01/30 19:26:03;;;;;;;1999.90;999.90;;;;;;;7.70;100.00;103057.50;10339625;28;20062;-68
2024/01/30 19:31:06;;;;;;;1999.90;999.90;;;;;;;7.63;100.00;103062.81;10339308;28;20096;-68
2024/01/30 19:36:08;;;;;;;1999.90;999.90;;;;;;;7.44;100.00;103063.81;10321977;28;20193;-68
2024/01/30 19:41:12;;;;;;;1999.90;999.90;;;;;;;7.56;100.00;103068.06;10339018;28;20065;-68
2024/01/30 19:46:15;;;;;;;1999.90;999.90;;;;;;;7.58;100.00;103087.16;10321630;28;20081;-68
2024/01/30 19:51:17;;;;;;;1999.90;999.90;;;;;;;7.55;100.00;103097.66;10304782;28;20049;-68
2024/01/30 19:56:21;;;;;;;1999.90;999.90;;;;;;;7.46;100.00;103101.16;10337739;28;20058;-69
2024/01/30 20:01:23;;;;;;;1999.90;999.90;;;;;;;7.68;100.00;103112.28;10320424;28;20070;-68
2024/01/30 20:06:25;;;;;;;1999.90;999.90;;;;;;;7.54;100.00;103112.41;10337338;28;20064;-68
2024/01/30 20:11:28;;;;;;;1999.90;999.90;;;;;;;7.20;100.00;103117.00;10320522;28;20046;-68
2024/01/30 20:16:37;;;;;;;1999.90;999.90;;;;;;;7.22;100.00;103129.13;10337594;28;20056;-68
2024/01/30 20:21:40;;;;;;;1999.90;999.90;;;;;;;7.21;100.00;103134.34;10295118;28;20050;-68
2024/01/30 20:26:42;;;;;;;1999.90;999.90;;;;;;;7.40;100.00;103129.91;10375621;28;20132;-68
2024/01/30 20:31:45;;;;;;;1999.90;999.90;;;;;;;7.07;100.00;103134.41;10377324;28;20125;-68
2024/01/30 20:36:48;;;;;;;1999.90;999.90;;;;;;;6.93;100.00;103142.31;10377305;28;20053;-68
2024/01/30 20:41:50;;;;;;;1999.90;999.90;;;;;;;7.09;100.00;103158.72;10377112;28;20042;-68
2024/01/30 20:46:53;;;;;;;1999.90;999.90;;;;;;;7.09;100.00;103165.69;10376367;28;20533;-68
2024/01/30 20:51:55;;;;;;;1999.90;999.90;;;;;;;7.19;100.00;103170.81;10376120;28;20495;-68
2024/01/30 20:56:58;;;;;;;1999.90;999.90;;;;;;;6.89;100.00;103177.03;10358662;28;20093;-68
2024/01/30 21:02:00;;;;;;;1999.90;999.90;;;;;;;7.04;100.00;103161.38;10376443;28;20052;-68
2024/01/30 21:07:02;;;;;;;1999.90;999.90;;;;;;;7.12;100.00;103178.69;10376302;28;20054;-68
2024/01/30 21:12:05;;;;;;;1999.90;999.90;;;;;;;7.15;100.00;103181.28;10358653;28;20074;-68
2024/01/30 21:17:08;;;;;;;1999.90;999.90;;;;;;;7.10;100.00;103183.91;10375085;28;20046;-68
2024/01/30 21:22:10;;;;;;;1999.90;999.90;;;;;;;7.16;100.00;103178.69;10357711;28;20052;-68
2024/01/30 21:27:12;;;;;;;1999.90;999.90;;;;;;;7.09;100.00;103182.16;10375727;28;20073;-68
2024/01/30 21:32:15;;;;;;;1999.90;999.90;;;;;;;7.01;100.00;103186.53;10357304;28;20497;-68
2024/01/30 21:37:17;;;;;;;1999.90;999.90;;;;;;;7.02;100.00;103193.50;10374750;28;20382;-68
2024/01/30 21:42:20;;;;;;;1999.90;999.90;;;;;;;7.15;100.00;103182.16;10357194;28;20460;-68
2024/01/30 21:47:22;;;;;;;1999.90;999.90;;;;;;;6.86;100.00;103203.97;10375129;28;20050;-68
2024/01/30 21:52:25;;;;;;;1999.90;999.90;;;;;;;7.09;100.00;103207.34;10374735;28;20050;-68
2024/01/30 21:57:27;;;;;;;1999.90;999.90;;;;;;;6.97;100.00;103208.28;10341604;28;20449;-69